createdAt,value
2022-08-25T00:00:22.998Z,22.00
2022-08-25T00:03:06.772Z,22.01
2022-08-25T00:05:35.063Z,22.02
2022-08-25T00:08:06.662Z,22.03
2022-08-25T00:10:37.651Z,22.02
2022-08-25T00:13:05.876Z,22.01
2022-08-25T00:15:33.970Z,22.01
2022-08-25T00:18:02.641Z,22.01
2022-08-25T00:20:32.134Z,22.00
2022-08-25T00:23:00.007Z,22.00
2022-08-25T00:25:28.535Z,21.98
2022-08-25T00:27:57.487Z,21.96
2022-08-25T00:30:25.643Z,21.92
2022-08-25T00:32:56.885Z,21.90
2022-08-25T00:35:26.945Z,21.90
2022-08-25T00:37:55.192Z,21.89
2022-08-25T00:40:26.359Z,21.89
2022-08-25T00:42:54.878Z,21.88
2022-08-25T00:45:23.675Z,21.88
2022-08-25T00:47:51.626Z,21.86
2022-08-25T00:50:20.005Z,21.85
2022-08-25T00:52:51.590Z,21.85
2022-08-25T00:55:25.625Z,21.84
2022-08-25T00:58:03.024Z,21.83
2022-08-25T01:00:43.634Z,21.83
2022-08-25T01:03:13.052Z,21.81
2022-08-25T01:05:43.565Z,21.81
2022-08-25T01:08:29.109Z,21.80
2022-08-25T01:10:59.769Z,21.81
2022-08-25T01:13:41.755Z,21.82
2022-08-25T01:16:09.647Z,21.82
2022-08-25T01:18:53.530Z,21.82
2022-08-25T01:21:23.755Z,21.80
2022-08-25T01:23:53.244Z,21.79
2022-08-25T01:26:30.625Z,21.79
2022-08-25T01:29:22.550Z,21.78
2022-08-25T01:31:55.164Z,21.80
2022-08-25T01:34:25.804Z,21.79
2022-08-25T01:36:56.044Z,21.77
2022-08-25T01:39:26.285Z,21.75
2022-08-25T01:42:06.935Z,21.74
2022-08-25T01:44:38.184Z,21.74
2022-08-25T01:47:07.723Z,21.73
2022-08-25T01:49:37.252Z,21.71
2022-08-25T01:52:21.301Z,21.70
2022-08-25T01:54:50.129Z,21.70
2022-08-25T01:57:18.765Z,21.71
2022-08-25T01:59:47.807Z,21.72
2022-08-25T02:02:18.323Z,21.73
2022-08-25T02:04:48.044Z,21.73
2022-08-25T02:07:16.208Z,21.74
2022-08-25T02:09:44.771Z,21.74
2022-08-25T02:12:13.480Z,21.74
2022-08-25T02:14:41.751Z,21.75
2022-08-25T02:17:10.687Z,21.75
2022-08-25T02:19:38.711Z,21.74
2022-08-25T02:22:07.154Z,21.72
2022-08-25T02:24:35.219Z,21.70
2022-08-25T02:27:04.404Z,21.69
2022-08-25T02:29:34.092Z,21.67
2022-08-25T02:32:03.310Z,21.66
2022-08-25T02:34:31.205Z,21.66
2022-08-25T02:36:59.156Z,21.67
2022-08-25T02:39:27.019Z,21.65
2022-08-25T02:41:54.833Z,21.63
2022-08-25T02:44:22.831Z,21.62
2022-08-25T02:46:50.730Z,21.63
2022-08-25T02:49:18.960Z,21.63
2022-08-25T02:51:47.118Z,21.63
2022-08-25T02:54:15.096Z,21.62
2022-08-25T02:56:43.291Z,21.60
2022-08-25T02:59:12.410Z,21.58
2022-08-25T03:01:40.314Z,21.58
2022-08-25T03:04:08.174Z,21.58
2022-08-25T03:06:36.014Z,21.59
2022-08-25T03:09:04.585Z,21.59
2022-08-25T03:11:33.430Z,21.61
2022-08-25T03:14:01.273Z,21.63
2022-08-25T03:16:29.872Z,21.65
2022-08-25T03:18:58.610Z,21.66
2022-08-25T03:21:30.018Z,21.65
2022-08-25T03:23:59.385Z,21.63
2022-08-25T03:26:46.298Z,21.61
2022-08-25T03:29:14.412Z,21.59
2022-08-25T03:31:44.975Z,21.57
2022-08-25T03:34:19.690Z,21.56
2022-08-25T03:36:50.493Z,21.55
2022-08-25T03:39:20.397Z,21.55
2022-08-25T03:41:48.384Z,21.55
2022-08-25T03:44:17.605Z,21.55
2022-08-25T03:46:52.299Z,21.55
2022-08-25T03:49:23.010Z,21.55
2022-08-25T03:51:53.766Z,21.54
2022-08-25T03:54:24.934Z,21.54
2022-08-25T03:56:53.358Z,21.54
2022-08-25T03:59:21.415Z,21.53
2022-08-25T04:01:54.460Z,21.54
2022-08-25T04:04:23.666Z,21.56
2022-08-25T04:06:53.345Z,21.57
2022-08-25T04:09:21.974Z,21.57
2022-08-25T04:11:53.050Z,21.58
2022-08-25T04:14:24.033Z,21.59
2022-08-25T04:16:53.450Z,21.60
2022-08-25T04:19:22.376Z,21.62
2022-08-25T04:21:50.456Z,21.64
2022-08-25T04:24:19.565Z,21.67
2022-08-25T04:26:51.095Z,21.69
2022-08-25T04:29:23.547Z,21.73
2022-08-25T04:31:53.960Z,21.74
2022-08-25T04:34:30.500Z,21.77
2022-08-25T04:37:03.281Z,21.80
2022-08-25T04:39:31.771Z,21.84
2022-08-25T04:42:01.149Z,21.89
2022-08-25T04:44:32.078Z,21.95
2022-08-25T04:47:00.636Z,22.02
2022-08-25T04:49:29.154Z,22.06
2022-08-25T04:51:57.856Z,22.11
2022-08-25T04:54:28.342Z,22.16
2022-08-25T04:56:58.281Z,22.22
2022-08-25T04:59:30.264Z,22.29
2022-08-25T05:02:02.792Z,22.37
2022-08-25T05:04:32.911Z,22.45
2022-08-25T05:07:01.353Z,22.51
2022-08-25T05:09:32.335Z,22.58
2022-08-25T05:12:04.670Z,22.65
2022-08-25T05:14:33.005Z,22.76
2022-08-25T05:17:02.183Z,22.91
2022-08-25T05:19:31.106Z,23.08
2022-08-25T05:21:59.525Z,23.26
2022-08-25T05:24:28.565Z,23.52
2022-08-25T05:26:56.983Z,24.02
2022-08-25T05:29:24.995Z,24.59
2022-08-25T05:31:53.619Z,25.12
2022-08-25T05:34:22.445Z,25.60
2022-08-25T05:36:51.533Z,25.90
2022-08-25T05:39:19.475Z,26.21
2022-08-25T05:41:47.307Z,26.58
2022-08-25T05:44:19.141Z,26.95
2022-08-25T05:46:48.980Z,27.35
2022-08-25T05:49:17.394Z,27.72
2022-08-25T05:51:45.272Z,28.06
2022-08-25T05:54:13.098Z,28.40
2022-08-25T05:56:41.593Z,28.73
2022-08-25T05:59:09.909Z,29.01
2022-08-25T06:01:57.272Z,29.29
2022-08-25T06:04:25.666Z,29.65
2022-08-25T06:06:55.156Z,29.91
2022-08-25T06:09:23.430Z,30.11
2022-08-25T06:11:54.708Z,30.31
2022-08-25T06:14:24.329Z,30.53
2022-08-25T06:16:52.706Z,30.69
2022-08-25T06:19:23.538Z,30.64
2022-08-25T06:21:55.688Z,30.72
2022-08-25T06:24:26.357Z,30.85
2022-08-25T06:26:56.338Z,30.82
2022-08-25T06:29:24.482Z,30.83
2022-08-25T06:31:53.120Z,30.77
2022-08-25T06:34:24.007Z,30.63
2022-08-25T06:36:53.181Z,30.45
2022-08-25T06:39:21.557Z,30.37
2022-08-25T06:41:55.022Z,30.22
2022-08-25T06:44:24.062Z,30.01
2022-08-25T06:46:52.010Z,29.88
2022-08-25T06:49:20.516Z,29.82
2022-08-25T06:51:49.776Z,29.81
2022-08-25T06:54:17.857Z,29.79
2022-08-25T06:56:45.759Z,29.73
2022-08-25T06:59:14.125Z,29.71
2022-08-25T07:01:42.233Z,29.88
2022-08-25T07:04:12.856Z,30.03
2022-08-25T07:06:42.251Z,30.18
2022-08-25T07:09:12.397Z,30.48
2022-08-25T07:11:41.944Z,30.89
2022-08-25T07:14:12.115Z,31.13
2022-08-25T07:16:43.169Z,31.36
2022-08-25T07:19:21.218Z,31.58
2022-08-25T07:21:52.103Z,31.76
2022-08-25T07:24:20.122Z,31.82
2022-08-25T07:26:48.285Z,31.70
2022-08-25T07:29:20.157Z,31.65
2022-08-25T07:32:02.716Z,31.66
2022-08-25T07:34:51.867Z,31.85
2022-08-25T07:40:22.534Z,32.45
2022-08-25T07:42:53.759Z,32.57
2022-08-25T07:45:30.411Z,32.52
2022-08-25T07:48:07.438Z,32.27
2022-08-25T07:50:39.037Z,32.15
2022-08-25T07:53:07.240Z,32.15
2022-08-25T07:55:36.804Z,32.12
2022-08-25T07:58:08.448Z,32.36
2022-08-25T08:00:39.865Z,32.72
2022-08-25T08:03:19.918Z,33.03
2022-08-25T08:05:59.963Z,33.28
2022-08-25T08:08:29.476Z,33.58
2022-08-25T08:11:05.429Z,34.06
2022-08-25T08:13:38.004Z,34.29
2022-08-25T08:16:13.778Z,33.74
2022-08-25T08:18:43.789Z,33.26
2022-08-25T08:21:23.466Z,33.18
2022-08-25T08:23:58.138Z,33.19
2022-08-25T08:26:48.088Z,33.41
2022-08-25T08:29:16.895Z,33.83
2022-08-25T08:31:48.662Z,34.04
2022-08-25T08:34:17.360Z,34.06
2022-08-25T08:36:45.483Z,34.08
2022-08-25T08:39:13.498Z,34.08
2022-08-25T08:42:11.423Z,34.05
2022-08-25T08:44:58.028Z,34.34
2022-08-25T08:48:10.361Z,34.97
2022-08-25T08:50:46.577Z,35.73
2022-08-25T08:53:15.073Z,36.32
2022-08-25T08:55:51.842Z,36.83
2022-08-25T08:58:45.816Z,37.41
2022-08-25T09:01:29.606Z,37.97
2022-08-25T09:04:08.716Z,38.36
2022-08-25T09:06:48.340Z,38.47
2022-08-25T09:09:26.796Z,38.39
2022-08-25T09:12:10.205Z,38.73
2022-08-25T09:14:57.682Z,39.13
2022-08-25T09:17:54.968Z,39.54
2022-08-25T09:20:39.016Z,39.86
2022-08-25T09:23:48.277Z,39.85
2022-08-25T09:26:39.296Z,39.46
2022-08-25T09:29:16.504Z,39.73
2022-08-25T09:31:45.234Z,40.01
2022-08-25T09:34:22.220Z,40.14
2022-08-25T09:36:53.507Z,39.94
2022-08-25T09:39:21.571Z,39.50
2022-08-25T09:41:52.781Z,39.39
2022-08-25T09:44:32.084Z,39.57
2022-08-25T09:47:08.440Z,40.02
2022-08-25T09:50:04.571Z,40.36
2022-08-25T09:52:42.609Z,40.33
2022-08-25T09:55:16.215Z,40.69
2022-08-25T09:57:44.212Z,41.09
2022-08-25T10:00:33.903Z,41.30
2022-08-25T10:03:24.944Z,40.79
2022-08-25T10:05:58.066Z,39.89
2022-08-25T10:08:32.756Z,39.58
2022-08-25T10:11:06.536Z,40.17
2022-08-25T10:13:43.027Z,40.33
2022-08-25T10:16:32.073Z,40.20
2022-08-25T10:19:10.237Z,40.57
2022-08-25T10:21:41.668Z,40.99
2022-08-25T10:24:12.618Z,40.46
2022-08-25T10:27:03.517Z,40.34
2022-08-25T10:30:03.488Z,40.77
2022-08-25T10:32:40.794Z,41.23
2022-08-25T10:35:23.755Z,41.25
2022-08-25T10:38:27.206Z,40.96
2022-08-25T10:41:23.001Z,40.70
2022-08-25T10:44:44.425Z,39.73
2022-08-25T10:47:29.700Z,39.55
2022-08-25T10:50:13.769Z,39.44
2022-08-25T10:52:59.982Z,39.18
2022-08-25T10:55:52.937Z,38.93
2022-08-25T10:59:07.364Z,39.03
2022-08-25T11:02:13.214Z,38.98
2022-08-25T11:04:59.485Z,38.84
2022-08-25T11:07:36.185Z,38.69
2022-08-25T11:10:12.555Z,38.53
2022-08-25T11:12:51.277Z,38.53
2022-08-25T11:15:29.113Z,38.70
2022-08-25T11:18:14.477Z,38.68
2022-08-25T11:20:56.392Z,38.69
2022-08-25T11:23:59.439Z,38.51
2022-08-25T11:26:36.885Z,38.35
2022-08-25T11:29:13.611Z,38.62
2022-08-25T11:31:52.187Z,38.69
2022-08-25T11:34:22.729Z,38.52
2022-08-25T11:37:00.084Z,38.87
2022-08-25T11:39:58.894Z,39.38
2022-08-25T11:42:35.918Z,39.16
2022-08-25T11:45:41.423Z,38.98
2022-08-25T11:48:22.947Z,39.05
2022-08-25T11:51:03.276Z,39.07
2022-08-25T11:53:42.324Z,39.02
2022-08-25T11:56:31.914Z,39.21
2022-08-25T11:59:00.882Z,39.62
2022-08-25T12:01:40.931Z,39.89
2022-08-25T12:04:34.123Z,40.63
2022-08-25T12:07:11.208Z,40.83
2022-08-25T12:09:51.485Z,40.23
2022-08-25T12:12:38.529Z,40.25
2022-08-25T12:15:22.851Z,40.33
2022-08-25T12:18:13.690Z,39.10
2022-08-25T12:20:56.710Z,38.61
2022-08-25T12:24:03.003Z,38.58
2022-08-25T12:26:46.143Z,38.33
2022-08-25T12:29:30.930Z,38.81
2022-08-25T12:32:23.065Z,39.00
2022-08-25T12:34:54.123Z,39.42
2022-08-25T12:37:25.329Z,39.55
2022-08-25T12:40:05.821Z,39.20
2022-08-25T12:42:43.383Z,39.23
2022-08-25T12:45:31.569Z,39.13
2022-08-25T12:48:29.260Z,39.58
2022-08-25T12:51:05.390Z,40.41
2022-08-25T12:53:43.327Z,41.22
2022-08-25T12:56:23.485Z,41.88
2022-08-25T12:59:12.691Z,41.79
2022-08-25T13:02:10.170Z,41.52
2022-08-25T13:04:38.676Z,41.05
2022-08-25T13:07:41.770Z,40.21
2022-08-25T13:10:21.655Z,40.17
2022-08-25T13:13:07.187Z,39.83
2022-08-25T13:15:35.490Z,39.48
2022-08-25T13:18:27.343Z,39.24
2022-08-25T13:21:13.912Z,39.27
2022-08-25T13:24:05.897Z,39.24
2022-08-25T13:26:47.187Z,39.49
2022-08-25T13:29:23.426Z,39.71
2022-08-25T13:32:02.009Z,39.37
2022-08-25T13:34:35.026Z,38.78
2022-08-25T13:37:32.714Z,38.83
2022-08-25T13:40:24.504Z,38.96
2022-08-25T13:43:02.670Z,38.99
2022-08-25T13:45:41.420Z,38.72
2022-08-25T13:48:20.741Z,38.32
2022-08-25T13:50:51.869Z,38.59
2022-08-25T13:53:26.599Z,38.62
2022-08-25T13:56:01.816Z,38.98
2022-08-25T13:58:44.891Z,39.53
2022-08-25T14:01:47.223Z,40.08
2022-08-25T14:04:40.021Z,40.24
2022-08-25T14:07:21.735Z,40.03
2022-08-25T14:09:59.098Z,39.77
2022-08-25T14:12:40.934Z,39.79
2022-08-25T14:15:17.872Z,40.50
2022-08-25T14:18:02.856Z,40.78
2022-08-25T14:20:33.561Z,41.15
2022-08-25T14:23:18.947Z,41.51
2022-08-25T14:25:52.210Z,41.66
2022-08-25T14:28:29.520Z,41.69
2022-08-25T14:31:14.406Z,41.54
2022-08-25T14:33:51.985Z,41.92
2022-08-25T14:36:20.990Z,42.17
2022-08-25T14:38:54.846Z,42.67
2022-08-25T14:41:25.595Z,43.31
2022-08-25T14:43:53.925Z,43.13
2022-08-25T14:46:25.682Z,43.01
2022-08-25T14:48:58.519Z,43.15
2022-08-25T14:51:32.074Z,43.74
2022-08-25T14:54:04.335Z,44.50
2022-08-25T14:56:33.554Z,44.46
2022-08-25T14:59:01.877Z,44.27
2022-08-25T15:01:30.182Z,43.84
2022-08-25T15:04:11.721Z,43.65
2022-08-25T15:06:44.565Z,43.14
2022-08-25T15:09:17.157Z,42.33
2022-08-25T15:11:50.775Z,42.13
2022-08-25T15:14:28.929Z,42.16
2022-08-25T15:17:02.919Z,42.37
2022-08-25T15:19:31.405Z,41.81
2022-08-25T15:21:59.509Z,41.83
2022-08-25T15:24:28.913Z,42.14
2022-08-25T15:27:00.368Z,42.02
2022-08-25T15:29:32.611Z,41.53
2022-08-25T15:32:02.775Z,41.82
2022-08-25T15:34:50.316Z,42.17
2022-08-25T15:37:18.391Z,42.34
2022-08-25T15:39:47.527Z,41.77
2022-08-25T15:42:17.038Z,40.98
2022-08-25T15:44:53.541Z,41.01
2022-08-25T15:47:24.531Z,41.56
2022-08-25T15:50:06.875Z,41.81
2022-08-25T15:52:45.910Z,41.41
2022-08-25T15:55:16.631Z,40.98
2022-08-25T15:57:44.901Z,40.71
2022-08-25T16:00:16.793Z,40.51
2022-08-25T16:02:46.270Z,40.75
2022-08-25T16:05:16.205Z,40.72
2022-08-25T16:07:51.650Z,40.70
2022-08-25T16:10:20.251Z,40.73
2022-08-25T16:12:48.107Z,40.62
2022-08-25T16:15:16.231Z,40.63
2022-08-25T16:17:47.010Z,40.69
2022-08-25T16:20:21.194Z,40.65
2022-08-25T16:22:51.521Z,40.46
2022-08-25T16:25:20.550Z,40.03
2022-08-25T16:27:49.470Z,39.55
2022-08-25T16:30:18.344Z,39.39
2022-08-25T16:32:47.257Z,39.20
2022-08-25T16:35:16.571Z,38.58
2022-08-25T16:37:44.610Z,37.63
2022-08-25T16:40:14.623Z,36.74
2022-08-25T16:42:43.001Z,35.98
2022-08-25T16:45:12.086Z,35.34
2022-08-25T16:47:42.671Z,34.75
2022-08-25T16:50:11.501Z,34.18
2022-08-25T16:52:59.435Z,33.68
2022-08-25T16:55:39.005Z,33.22
2022-08-25T16:58:12.529Z,32.82
2022-08-25T17:00:44.641Z,32.46
2022-08-25T17:03:13.419Z,32.14
2022-08-25T17:05:43.877Z,31.88
2022-08-25T17:08:30.765Z,31.59
2022-08-25T17:11:08.149Z,31.33
2022-08-25T17:13:38.858Z,31.12
2022-08-25T17:16:14.581Z,30.89
2022-08-25T17:18:43.658Z,30.63
2022-08-25T17:21:23.955Z,30.39
2022-08-25T17:23:58.125Z,30.14
2022-08-25T17:26:29.123Z,29.90
2022-08-25T17:29:01.244Z,29.67
2022-08-25T17:31:30.935Z,29.46
2022-08-25T17:33:59.900Z,29.26
2022-08-25T17:36:28.269Z,29.05
2022-08-25T17:38:57.032Z,28.85
2022-08-25T17:41:26.345Z,28.65
2022-08-25T17:43:54.449Z,28.43
2022-08-25T17:46:22.584Z,28.22
2022-08-25T17:48:50.677Z,28.01
2022-08-25T17:51:18.993Z,27.81
2022-08-25T17:53:49.812Z,27.63
2022-08-25T17:56:21.575Z,27.47
2022-08-25T17:58:52.440Z,27.37
2022-08-25T18:01:24.884Z,27.27
2022-08-25T18:03:55.074Z,27.14
2022-08-25T18:06:25.644Z,27.04
2022-08-25T18:08:57.537Z,26.96
2022-08-25T18:11:30.160Z,26.88
2022-08-25T18:13:58.917Z,26.78
2022-08-25T18:16:27.920Z,26.66
2022-08-25T18:18:57.366Z,26.54
2022-08-25T18:21:30.224Z,26.45
2022-08-25T18:23:59.070Z,26.39
2022-08-25T18:26:27.975Z,26.37
2022-08-25T18:28:56.050Z,26.34
2022-08-25T18:31:24.064Z,26.30
2022-08-25T18:33:52.438Z,26.27
2022-08-25T18:36:21.275Z,26.24
2022-08-25T18:39:09.268Z,26.17
2022-08-25T18:41:41.037Z,26.09
2022-08-25T18:44:11.022Z,26.00
2022-08-25T18:46:40.511Z,25.90
2022-08-25T18:49:09.190Z,25.83
2022-08-25T18:51:38.014Z,25.74
2022-08-25T18:54:08.364Z,25.69
2022-08-25T18:56:53.920Z,25.65
2022-08-25T18:59:23.732Z,25.62
2022-08-25T19:01:54.246Z,25.55
2022-08-25T19:04:31.358Z,25.49
2022-08-25T19:07:04.795Z,25.41
2022-08-25T19:09:36.784Z,25.30
2022-08-25T19:12:05.860Z,25.20
2022-08-25T19:14:33.936Z,25.12
2022-08-25T19:17:02.503Z,25.04
2022-08-25T19:19:31.702Z,24.95
2022-08-25T19:22:00.189Z,24.84
2022-08-25T19:24:29.275Z,24.72
2022-08-25T19:26:58.374Z,24.64
2022-08-25T19:29:26.859Z,24.56
2022-08-25T19:32:01.164Z,24.51
2022-08-25T19:34:35.385Z,24.47
2022-08-25T19:37:07.456Z,24.45
2022-08-25T19:39:40.990Z,24.44
2022-08-25T19:42:35.231Z,24.46
2022-08-25T19:44:59.874Z,24.50
2022-08-25T19:47:30.039Z,24.51
2022-08-25T19:50:00.727Z,24.52
2022-08-25T19:52:29.152Z,24.51
2022-08-25T19:54:58.450Z,24.49
2022-08-25T19:57:28.414Z,24.46
2022-08-25T20:00:29.512Z,24.42
2022-08-25T20:03:00.840Z,24.35
2022-08-25T20:05:30.372Z,24.27
2022-08-25T20:07:59.824Z,24.18
2022-08-25T20:10:35.608Z,24.09
2022-08-25T20:13:10.041Z,24.04
2022-08-25T20:15:39.185Z,24.00
2022-08-25T20:18:10.686Z,23.92
2022-08-25T20:20:39.265Z,23.85
2022-08-25T20:23:26.694Z,23.76
2022-08-25T20:25:55.995Z,23.67
2022-08-25T20:28:24.535Z,23.61
2022-08-25T20:30:52.722Z,23.54
2022-08-25T20:33:23.637Z,23.48
2022-08-25T20:35:53.102Z,23.44
2022-08-25T20:38:21.729Z,23.41
2022-08-25T20:40:49.761Z,23.36
2022-08-25T20:43:18.117Z,23.28
2022-08-25T20:45:49.459Z,23.19
2022-08-25T20:48:18.156Z,23.09
2022-08-25T20:50:46.057Z,23.00
2022-08-25T20:53:26.492Z,22.92
2022-08-25T20:55:54.570Z,22.83
2022-08-25T20:58:22.635Z,22.75
2022-08-25T21:00:52.022Z,22.69
2022-08-25T21:03:20.921Z,22.61
2022-08-25T21:05:49.288Z,22.59
2022-08-25T21:08:23.677Z,22.53
2022-08-25T21:10:51.882Z,22.50
2022-08-25T21:13:20.158Z,22.44
2022-08-25T21:15:51.121Z,22.38
2022-08-25T21:18:19.601Z,22.30
2022-08-25T21:20:47.645Z,22.21
2022-08-25T21:23:16.066Z,22.14
2022-08-25T21:25:44.109Z,22.10
2022-08-25T21:28:13.116Z,22.04
2022-08-25T21:30:44.683Z,21.99
2022-08-25T21:33:15.988Z,21.94
2022-08-25T21:35:44.176Z,21.90
2022-08-25T21:38:16.164Z,21.86
2022-08-25T21:40:45.195Z,21.80
2022-08-25T21:43:13.507Z,21.74
2022-08-25T21:45:46.687Z,21.69
2022-08-25T21:48:15.849Z,21.62
2022-08-25T21:50:44.056Z,21.56
2022-08-25T21:53:12.147Z,21.50
2022-08-25T21:55:44.296Z,21.48
2022-08-25T21:58:12.373Z,21.47
2022-08-25T22:00:41.979Z,21.47
2022-08-25T22:03:09.944Z,21.45
2022-08-25T22:05:38.020Z,21.43
2022-08-25T22:08:06.291Z,21.40
2022-08-25T22:10:34.371Z,21.36
2022-08-25T22:13:03.033Z,21.30
2022-08-25T22:15:31.419Z,21.25
2022-08-25T22:17:59.497Z,21.21
2022-08-25T22:20:29.710Z,21.18
2022-08-25T22:22:57.685Z,21.16
2022-08-25T22:25:28.205Z,21.14
2022-08-25T22:27:57.297Z,21.13
2022-08-25T22:30:28.349Z,21.12
2022-08-25T22:32:59.402Z,21.11
2022-08-25T22:35:31.038Z,21.08
2022-08-25T22:38:01.770Z,21.05
2022-08-25T22:40:34.261Z,21.00
2022-08-25T22:43:03.895Z,20.95
2022-08-25T22:45:35.669Z,20.89
2022-08-25T22:48:05.526Z,20.81
2022-08-25T22:50:37.485Z,20.70
2022-08-25T22:53:05.700Z,20.61
2022-08-25T22:55:34.445Z,20.55
2022-08-25T22:58:02.417Z,20.49
2022-08-25T23:00:32.125Z,20.45
2022-08-25T23:03:00.201Z,20.42
2022-08-25T23:05:29.798Z,20.38
2022-08-25T23:07:57.979Z,20.34
2022-08-25T23:10:26.766Z,20.29
2022-08-25T23:12:54.731Z,20.27
2022-08-25T23:15:22.800Z,20.25
2022-08-25T23:17:51.690Z,20.22
2022-08-25T23:20:44.812Z,20.17
2022-08-25T23:23:14.254Z,20.09
2022-08-25T23:25:42.251Z,20.03
2022-08-25T23:28:10.400Z,19.98
2022-08-25T23:30:39.912Z,19.90
2022-08-25T23:33:18.716Z,19.83
2022-08-25T23:35:57.186Z,19.77
2022-08-25T23:38:25.822Z,19.71
2022-08-25T23:40:57.123Z,19.66
2022-08-25T23:43:26.595Z,19.61
2022-08-25T23:45:55.816Z,19.56
2022-08-25T23:48:25.478Z,19.50
2022-08-25T23:50:53.970Z,19.44
2022-08-25T23:53:22.861Z,19.40
2022-08-25T23:55:54.135Z,19.37
2022-08-25T23:58:24.184Z,19.31
